createdAt,value
2023-12-14T00:00:29.327Z,83.22
2023-12-14T00:02:58.940Z,83.60
2023-12-14T00:05:28.546Z,83.71
2023-12-14T00:07:58.178Z,82.96
2023-12-14T00:10:27.840Z,82.80
2023-12-14T00:12:57.436Z,82.46
2023-12-14T00:15:29.631Z,82.15
2023-12-14T00:17:59.305Z,82.55
2023-12-14T00:20:29.053Z,82.50
2023-12-14T00:22:58.659Z,82.64
2023-12-14T00:25:28.309Z,82.54
2023-12-14T00:27:57.945Z,82.35
2023-12-14T00:30:30.136Z,82.41
2023-12-14T00:33:00.217Z,82.34
2023-12-14T00:35:30.068Z,82.16
2023-12-14T00:37:59.657Z,81.82
2023-12-14T00:40:29.357Z,82.47
2023-12-14T00:42:58.997Z,81.93
2023-12-14T00:45:31.150Z,81.49
2023-12-14T00:48:00.753Z,82.11
2023-12-14T00:50:30.420Z,82.04
2023-12-14T00:52:59.989Z,81.87
2023-12-14T00:55:29.603Z,81.47
2023-12-14T00:57:59.254Z,81.81
2023-12-14T01:00:32.409Z,81.59
2023-12-14T01:03:01.988Z,81.79
2023-12-14T01:05:31.764Z,81.59
2023-12-14T01:08:01.374Z,80.78
2023-12-14T01:10:30.973Z,81.22
2023-12-14T01:13:00.522Z,81.08
2023-12-14T01:15:32.815Z,81.10
2023-12-14T01:18:02.512Z,80.81
2023-12-14T01:20:32.257Z,80.97
2023-12-14T01:23:01.892Z,80.67
2023-12-14T01:25:31.598Z,80.49
2023-12-14T01:28:01.447Z,80.87
2023-12-14T01:30:33.640Z,80.72
2023-12-14T01:33:03.274Z,80.84
2023-12-14T01:35:32.897Z,80.90
2023-12-14T01:38:02.543Z,81.16
2023-12-14T01:40:32.210Z,81.38
2023-12-14T01:43:11.272Z,81.32
2023-12-14T01:45:43.441Z,81.15
2023-12-14T01:48:13.261Z,81.29
2023-12-14T01:50:43.143Z,81.24
2023-12-14T01:53:12.953Z,81.87
2023-12-14T01:55:42.550Z,81.96
2023-12-14T01:58:12.173Z,82.03
2023-12-14T02:00:46.509Z,81.87
2023-12-14T02:03:16.234Z,81.84
2023-12-14T02:05:45.909Z,81.79
2023-12-14T02:08:15.684Z,81.47
2023-12-14T02:10:45.330Z,81.66
2023-12-14T02:13:14.938Z,81.71
2023-12-14T02:15:47.096Z,81.79
2023-12-14T02:18:16.770Z,81.69
2023-12-14T02:20:46.419Z,81.96
2023-12-14T02:23:18.570Z,81.88
2023-12-14T02:25:48.212Z,82.71
2023-12-14T02:28:17.798Z,82.94
2023-12-14T02:30:47.384Z,82.87
2023-12-14T02:33:17.144Z,83.08
2023-12-14T02:35:46.820Z,83.06
2023-12-14T02:38:19.043Z,83.54
2023-12-14T02:40:48.742Z,83.93
2023-12-14T02:43:18.411Z,84.39
2023-12-14T02:45:48.130Z,84.88
2023-12-14T02:48:17.742Z,84.47
2023-12-14T02:50:47.378Z,84.07
2023-12-14T02:53:19.611Z,83.93
2023-12-14T02:55:49.649Z,84.06
2023-12-14T02:58:19.314Z,84.13
2023-12-14T03:00:48.895Z,83.95
2023-12-14T03:03:18.520Z,84.26
2023-12-14T03:05:48.103Z,84.22
2023-12-14T03:08:20.246Z,84.36
2023-12-14T03:10:49.795Z,84.93
2023-12-14T03:13:19.384Z,85.20
2023-12-14T03:15:50.506Z,85.21
2023-12-14T03:18:20.168Z,85.79
2023-12-14T03:20:50.000Z,86.42
2023-12-14T03:23:22.200Z,87.06
2023-12-14T03:25:51.821Z,87.18
2023-12-14T03:28:21.408Z,87.60
2023-12-14T03:30:51.050Z,87.96
2023-12-14T03:33:20.710Z,88.16
2023-12-14T03:35:50.326Z,87.72
2023-12-14T03:38:22.939Z,87.61
2023-12-14T03:40:52.614Z,86.86
2023-12-14T03:43:23.641Z,87.04
2023-12-14T03:45:53.205Z,86.27
2023-12-14T03:48:22.824Z,85.56
2023-12-14T03:50:52.455Z,85.55
2023-12-14T03:53:24.658Z,85.48
2023-12-14T03:55:54.298Z,84.88
2023-12-14T03:58:23.877Z,85.11
2023-12-14T04:00:53.484Z,85.57
2023-12-14T04:03:23.098Z,85.47
2023-12-14T04:05:52.985Z,84.83
2023-12-14T04:08:25.196Z,84.37
2023-12-14T04:10:54.889Z,84.80
2023-12-14T04:13:24.496Z,84.86
2023-12-14T04:15:54.064Z,84.98
2023-12-14T04:18:23.721Z,85.03
2023-12-14T04:20:53.296Z,84.96
2023-12-14T04:23:25.752Z,84.63
2023-12-14T04:25:55.356Z,84.42
2023-12-14T04:28:25.020Z,84.40
2023-12-14T04:30:54.671Z,85.22
2023-12-14T04:33:24.412Z,85.36
2023-12-14T04:35:54.293Z,85.38
2023-12-14T04:38:26.679Z,85.13
2023-12-14T04:40:56.374Z,85.83
2023-12-14T04:43:25.965Z,85.18
2023-12-14T04:45:55.506Z,86.35
2023-12-14T04:48:25.191Z,85.91
2023-12-14T04:50:54.869Z,86.92
2023-12-14T04:53:27.084Z,87.31
2023-12-14T04:55:56.747Z,88.52
2023-12-14T04:58:26.350Z,88.22
2023-12-14T05:00:55.934Z,88.43
2023-12-14T05:03:25.647Z,87.91
2023-12-14T05:05:55.591Z,88.06
2023-12-14T05:08:27.787Z,88.23
2023-12-14T05:10:57.581Z,88.06
2023-12-14T05:13:27.177Z,87.88
2023-12-14T05:15:56.801Z,88.25
2023-12-14T05:18:26.514Z,87.94
2023-12-14T05:20:56.255Z,88.20
2023-12-14T05:23:28.472Z,88.29
2023-12-14T05:25:58.196Z,88.55
2023-12-14T05:28:27.847Z,88.02
2023-12-14T05:30:57.552Z,88.09
2023-12-14T05:33:27.214Z,87.95
2023-12-14T05:35:56.820Z,88.03
2023-12-14T05:38:28.973Z,87.66
2023-12-14T05:40:58.525Z,87.52
2023-12-14T05:43:28.095Z,87.01
2023-12-14T05:45:57.669Z,86.90
2023-12-14T05:48:28.063Z,86.68
2023-12-14T05:50:57.678Z,86.05
2023-12-14T05:53:30.360Z,86.25
2023-12-14T05:56:00.597Z,85.78
2023-12-14T05:58:30.193Z,85.57
2023-12-14T06:01:00.344Z,85.89
2023-12-14T06:03:30.942Z,85.78
2023-12-14T06:06:00.554Z,85.52
2023-12-14T06:08:32.725Z,85.51
2023-12-14T06:11:02.480Z,85.11
2023-12-14T06:13:32.138Z,85.16
2023-12-14T06:16:01.992Z,85.23
2023-12-14T06:18:31.624Z,85.31
2023-12-14T06:21:01.290Z,84.99
2023-12-14T06:23:33.432Z,85.33
2023-12-14T06:26:04.478Z,85.24
2023-12-14T06:28:34.242Z,85.26
2023-12-14T06:31:05.087Z,85.75
2023-12-14T06:33:35.424Z,86.14
2023-12-14T06:36:07.869Z,86.21
2023-12-14T06:38:42.028Z,86.98
2023-12-14T06:41:11.698Z,87.35
2023-12-14T06:43:42.298Z,87.10
2023-12-14T06:46:11.912Z,86.88
2023-12-14T06:48:41.601Z,87.18
2023-12-14T06:51:11.216Z,86.51
2023-12-14T06:53:44.022Z,85.93
2023-12-14T06:56:13.835Z,85.89
2023-12-14T06:58:43.787Z,85.89
2023-12-14T07:01:16.607Z,85.71
2023-12-14T07:03:46.797Z,85.55
2023-12-14T07:06:17.212Z,85.80
2023-12-14T07:08:49.497Z,85.51
2023-12-14T07:11:19.587Z,85.12
2023-12-14T07:13:50.161Z,85.26
2023-12-14T07:16:20.482Z,85.13
2023-12-14T07:18:50.178Z,85.33
2023-12-14T07:21:19.907Z,85.42
2023-12-14T07:23:52.154Z,85.31
2023-12-14T07:26:21.766Z,85.52
2023-12-14T07:28:51.437Z,85.30
2023-12-14T07:31:21.000Z,85.40
2023-12-14T07:33:50.615Z,85.69
2023-12-14T07:36:20.374Z,85.18
2023-12-14T07:38:55.550Z,84.70
2023-12-14T07:41:30.911Z,84.34
2023-12-14T07:44:02.879Z,84.09
2023-12-14T07:46:34.096Z,84.11
2023-12-14T07:49:03.751Z,84.16
2023-12-14T07:51:33.344Z,84.17
2023-12-14T07:54:05.825Z,84.30
2023-12-14T07:56:35.834Z,84.79
2023-12-14T07:59:07.965Z,84.94
2023-12-14T08:01:37.638Z,84.44
2023-12-14T08:04:07.695Z,84.25
2023-12-14T08:06:37.441Z,83.65
2023-12-14T08:09:10.046Z,83.53
2023-12-14T08:11:39.606Z,83.73
2023-12-14T08:14:09.260Z,83.01
2023-12-14T08:16:38.855Z,83.52
2023-12-14T08:19:08.495Z,83.46
2023-12-14T08:21:38.101Z,83.96
2023-12-14T08:24:11.073Z,83.75
2023-12-14T08:26:40.673Z,82.81
2023-12-14T08:29:10.575Z,83.37
2023-12-14T08:31:40.186Z,82.37
2023-12-14T08:34:10.374Z,82.00
2023-12-14T08:36:40.043Z,81.46
2023-12-14T08:39:12.322Z,81.37
2023-12-14T08:41:42.374Z,82.02
2023-12-14T08:44:12.037Z,81.15
2023-12-14T08:46:44.913Z,81.37
2023-12-14T08:49:14.781Z,81.78
2023-12-14T08:51:44.597Z,81.27
2023-12-14T08:54:16.751Z,81.25
2023-12-14T08:56:46.431Z,80.78
2023-12-14T08:59:16.064Z,80.44
2023-12-14T09:01:45.777Z,80.40
2023-12-14T09:04:15.777Z,80.03
2023-12-14T09:06:46.721Z,80.10
2023-12-14T09:09:20.096Z,79.12
2023-12-14T09:11:52.101Z,78.43
2023-12-14T09:14:23.106Z,78.52
2023-12-14T09:16:52.782Z,78.74
2023-12-14T09:19:22.599Z,78.74
2023-12-14T09:21:52.256Z,78.01
2023-12-14T09:24:25.017Z,77.73
2023-12-14T09:26:55.266Z,77.14
2023-12-14T09:29:25.045Z,76.98
2023-12-14T09:31:54.837Z,76.63
2023-12-14T09:34:25.424Z,76.47
2023-12-14T09:36:57.460Z,76.49
2023-12-14T09:39:29.864Z,75.61
2023-12-14T09:42:05.961Z,75.56
2023-12-14T09:44:36.298Z,76.82
2023-12-14T09:47:06.361Z,76.44
2023-12-14T09:49:36.244Z,76.56
2023-12-14T09:52:06.148Z,76.89
2023-12-14T09:54:38.306Z,76.46
2023-12-14T09:57:08.015Z,77.02
2023-12-14T09:59:37.610Z,77.06
2023-12-14T10:02:14.280Z,77.26
2023-12-14T10:04:43.983Z,77.27
2023-12-14T10:07:14.177Z,76.58
2023-12-14T10:09:47.721Z,76.40
2023-12-14T10:12:17.310Z,76.20
2023-12-14T10:14:46.887Z,76.82
2023-12-14T10:17:21.584Z,76.74
2023-12-14T10:19:51.604Z,76.83
2023-12-14T10:22:21.714Z,76.48
2023-12-14T10:24:53.931Z,76.43
2023-12-14T10:27:23.502Z,75.69
2023-12-14T10:29:53.066Z,75.94
2023-12-14T10:32:22.823Z,76.14
2023-12-14T10:34:52.544Z,75.20
2023-12-14T10:37:22.154Z,75.29
2023-12-14T10:39:54.925Z,74.54
2023-12-14T10:42:24.492Z,75.03
2023-12-14T10:45:11.896Z,73.98
2023-12-14T10:47:48.551Z,74.21
2023-12-14T10:50:21.336Z,73.95
2023-12-14T10:52:51.036Z,73.30
2023-12-14T10:55:26.769Z,72.78
2023-12-14T10:57:56.777Z,71.59
2023-12-14T11:00:26.306Z,71.34
2023-12-14T11:02:55.971Z,72.39
2023-12-14T11:05:30.884Z,72.54
2023-12-14T11:08:07.357Z,72.65
2023-12-14T11:10:45.031Z,72.37
2023-12-14T11:13:16.005Z,74.36
2023-12-14T11:15:50.890Z,73.87
2023-12-14T11:18:27.955Z,73.32
2023-12-14T11:21:02.126Z,72.67
2023-12-14T11:23:36.368Z,72.87
2023-12-14T11:26:09.564Z,72.08
2023-12-14T11:28:40.447Z,71.37
2023-12-14T11:31:10.542Z,71.48
2023-12-14T11:33:43.698Z,71.22
2023-12-14T11:36:15.812Z,71.81
2023-12-14T11:38:46.188Z,71.21
2023-12-14T11:41:18.604Z,70.80
2023-12-14T11:43:48.286Z,70.90
2023-12-14T11:46:18.277Z,69.20
2023-12-14T11:48:49.945Z,69.70
2023-12-14T11:51:19.900Z,70.84
2023-12-14T11:53:49.863Z,71.10
2023-12-14T11:56:24.398Z,71.45
2023-12-14T11:58:55.639Z,70.85
2023-12-14T12:01:26.949Z,71.16
2023-12-14T12:03:57.082Z,71.09
2023-12-14T12:06:29.189Z,70.61
2023-12-14T12:08:58.919Z,70.28
2023-12-14T12:11:29.523Z,70.42
2023-12-14T12:14:01.345Z,70.91
2023-12-14T12:16:31.154Z,71.02
2023-12-14T12:19:14.473Z,70.21
2023-12-14T12:21:44.076Z,70.73
2023-12-14T12:24:22.674Z,70.97
2023-12-14T12:27:00.292Z,70.86
2023-12-14T12:29:30.318Z,69.66
2023-12-14T12:32:00.001Z,70.14
2023-12-14T12:34:29.634Z,70.19
2023-12-14T12:37:00.466Z,70.15
2023-12-14T12:39:30.482Z,69.70
2023-12-14T12:42:03.742Z,69.40
2023-12-14T12:44:33.463Z,69.11
2023-12-14T12:47:10.567Z,68.34
2023-12-14T12:49:41.155Z,68.04
2023-12-14T12:52:10.840Z,67.83
2023-12-14T12:54:41.163Z,67.76
2023-12-14T12:57:13.304Z,67.71
2023-12-14T12:59:42.857Z,67.58
2023-12-14T13:02:12.430Z,68.30
2023-12-14T13:04:42.242Z,67.91
2023-12-14T13:07:13.307Z,67.25
2023-12-14T13:09:42.637Z,67.36
2023-12-14T13:12:14.778Z,67.28
2023-12-14T13:14:44.369Z,67.53
2023-12-14T13:17:13.962Z,68.34
2023-12-14T13:19:43.579Z,67.94
2023-12-14T13:22:13.192Z,68.02
2023-12-14T13:24:42.894Z,67.82
2023-12-14T13:27:15.060Z,67.79
2023-12-14T13:29:44.910Z,67.44
2023-12-14T13:32:14.578Z,67.19
2023-12-14T13:34:44.451Z,66.99
2023-12-14T13:37:14.412Z,67.15
2023-12-14T13:39:44.425Z,67.97
2023-12-14T13:42:17.047Z,68.69
2023-12-14T13:44:46.596Z,68.63
2023-12-14T13:47:16.248Z,69.37
2023-12-14T13:49:45.883Z,69.71
2023-12-14T13:52:15.872Z,69.30
2023-12-14T13:54:45.666Z,70.31
2023-12-14T13:57:17.982Z,69.17
2023-12-14T13:59:47.580Z,68.82
2023-12-14T14:02:17.230Z,69.23
2023-12-14T14:04:49.430Z,68.93
2023-12-14T14:07:19.404Z,68.24
2023-12-14T14:09:50.094Z,68.21
2023-12-14T14:12:22.336Z,68.54
2023-12-14T14:14:51.978Z,69.05
2023-12-14T14:17:21.599Z,67.39
2023-12-14T14:19:51.232Z,67.42
2023-12-14T14:22:22.252Z,68.83
2023-12-14T14:24:53.123Z,69.39
2023-12-14T14:27:25.277Z,68.15
2023-12-14T14:29:56.999Z,68.96
2023-12-14T14:32:27.373Z,68.86
2023-12-14T14:34:59.472Z,68.22
2023-12-14T14:37:29.095Z,67.81
2023-12-14T14:39:58.689Z,68.87
2023-12-14T14:42:31.620Z,68.77
2023-12-14T14:45:01.248Z,68.78
2023-12-14T14:47:31.355Z,69.32
2023-12-14T14:50:05.295Z,69.49
2023-12-14T14:52:35.402Z,68.90
2023-12-14T14:55:05.648Z,68.59
2023-12-14T14:57:37.825Z,68.54
2023-12-14T15:00:09.267Z,69.23
2023-12-14T15:02:39.281Z,69.97
2023-12-14T15:05:09.648Z,69.89
2023-12-14T15:07:39.269Z,69.67
2023-12-14T15:10:10.664Z,69.62
2023-12-14T15:12:42.827Z,69.64
2023-12-14T15:15:12.929Z,69.11
2023-12-14T15:17:42.618Z,69.06
2023-12-14T15:20:13.176Z,68.85
2023-12-14T15:22:42.994Z,69.87
2023-12-14T15:25:14.657Z,70.08
2023-12-14T15:27:46.840Z,69.83
2023-12-14T15:30:18.071Z,70.27
2023-12-14T15:32:47.714Z,69.13
2023-12-14T15:35:17.804Z,68.65
2023-12-14T15:37:47.462Z,69.26
2023-12-14T15:40:17.151Z,69.14
2023-12-14T15:42:52.252Z,68.46
2023-12-14T15:45:22.630Z,67.95
2023-12-14T15:47:52.428Z,68.08
2023-12-14T15:50:24.113Z,68.24
2023-12-14T15:52:53.845Z,67.43
2023-12-14T15:55:24.567Z,68.82
2023-12-14T15:57:56.687Z,69.11
2023-12-14T16:00:26.300Z,68.20
2023-12-14T16:02:55.862Z,68.41
2023-12-14T16:05:25.500Z,68.13
2023-12-14T16:07:55.304Z,68.34
2023-12-14T16:10:25.691Z,67.95
2023-12-14T16:12:57.866Z,68.63
2023-12-14T16:15:27.474Z,67.19
2023-12-14T16:17:57.064Z,67.67
2023-12-14T16:20:27.283Z,66.94
2023-12-14T16:22:57.119Z,67.03
2023-12-14T16:25:27.448Z,66.26
2023-12-14T16:28:00.045Z,66.22
2023-12-14T16:30:29.651Z,66.06
2023-12-14T16:32:59.418Z,66.43
2023-12-14T16:35:29.597Z,66.32
2023-12-14T16:37:59.261Z,65.99
2023-12-14T16:40:28.855Z,65.88
2023-12-14T16:43:00.997Z,65.76
2023-12-14T16:45:30.547Z,66.05
2023-12-14T16:48:00.947Z,66.51
2023-12-14T16:50:30.645Z,67.32
2023-12-14T16:53:00.338Z,68.05
2023-12-14T16:55:29.970Z,67.59
2023-12-14T16:58:02.094Z,68.19
2023-12-14T17:00:31.700Z,67.76
2023-12-14T17:03:01.268Z,68.06
2023-12-14T17:05:30.919Z,68.99
2023-12-14T17:08:00.725Z,68.41
2023-12-14T17:10:30.952Z,68.53
2023-12-14T17:13:04.065Z,68.96
2023-12-14T17:15:34.104Z,68.83
2023-12-14T17:18:03.683Z,69.60
2023-12-14T17:20:33.372Z,68.79
2023-12-14T17:23:06.378Z,69.57
2023-12-14T17:25:35.968Z,69.30
2023-12-14T17:28:08.664Z,69.48
2023-12-14T17:30:39.211Z,68.79
2023-12-14T17:33:13.018Z,69.11
2023-12-14T17:35:42.816Z,68.58
2023-12-14T17:38:12.414Z,68.82
2023-12-14T17:40:42.246Z,69.59
2023-12-14T17:43:14.679Z,68.94
2023-12-14T17:45:44.483Z,68.61
2023-12-14T17:48:14.234Z,68.95
2023-12-14T17:50:43.801Z,68.85
2023-12-14T17:53:13.381Z,68.66
2023-12-14T17:55:43.122Z,68.55
2023-12-14T17:58:15.306Z,69.06
2023-12-14T18:00:44.983Z,69.81
2023-12-14T18:03:14.953Z,70.54
2023-12-14T18:05:44.685Z,71.56
2023-12-14T18:08:14.363Z,72.66
2023-12-14T18:10:44.096Z,73.96
2023-12-14T18:13:18.481Z,74.40
2023-12-14T18:15:48.169Z,75.39
2023-12-14T18:18:17.808Z,75.70
2023-12-14T18:20:47.365Z,75.95
2023-12-14T18:23:17.269Z,75.38
2023-12-14T18:25:47.553Z,75.42
2023-12-14T18:28:19.948Z,75.03
2023-12-14T18:30:49.564Z,74.72
2023-12-14T18:33:19.478Z,74.96
2023-12-14T18:35:49.165Z,74.58
2023-12-14T18:38:18.794Z,74.58
2023-12-14T18:40:48.595Z,75.35
2023-12-14T18:43:20.851Z,74.33
2023-12-14T18:45:50.404Z,74.50
2023-12-14T18:48:20.030Z,74.90
2023-12-14T18:50:49.629Z,74.70
2023-12-14T18:53:19.209Z,74.55
2023-12-14T18:55:49.048Z,74.21
2023-12-14T18:58:21.280Z,74.34
2023-12-14T19:00:51.061Z,74.43
2023-12-14T19:03:20.676Z,73.88
2023-12-14T19:05:50.396Z,74.21
2023-12-14T19:08:20.083Z,74.19
2023-12-14T19:10:49.692Z,74.89
2023-12-14T19:13:21.852Z,74.85
2023-12-14T19:15:51.444Z,74.42
2023-12-14T19:18:21.147Z,74.59
2023-12-14T19:20:50.920Z,74.48
2023-12-14T19:23:20.752Z,75.49
2023-12-14T19:25:50.620Z,76.13
2023-12-14T19:28:22.849Z,76.04
2023-12-14T19:30:52.456Z,75.93
2023-12-14T19:33:22.787Z,75.70
2023-12-14T19:35:52.465Z,75.91
2023-12-14T19:38:22.085Z,76.36
2023-12-14T19:40:51.720Z,75.80
2023-12-14T19:43:23.934Z,75.14
2023-12-14T19:45:53.577Z,74.78
2023-12-14T19:48:25.938Z,74.44
2023-12-14T19:50:57.622Z,74.32
2023-12-14T19:53:27.267Z,75.37
2023-12-14T19:55:56.908Z,75.58
2023-12-14T19:58:29.100Z,75.55
2023-12-14T20:00:58.704Z,75.43
2023-12-14T20:03:28.640Z,75.52
2023-12-14T20:05:58.305Z,75.16
2023-12-14T20:08:27.993Z,74.81
2023-12-14T20:10:57.636Z,74.96
2023-12-14T20:13:29.788Z,74.41
2023-12-14T20:15:59.592Z,74.25
2023-12-14T20:18:29.229Z,74.23
2023-12-14T20:20:58.832Z,74.58
2023-12-14T20:23:28.505Z,74.79
2023-12-14T20:25:58.211Z,74.79
2023-12-14T20:28:31.303Z,74.80
2023-12-14T20:31:01.102Z,75.03
2023-12-14T20:33:31.737Z,74.55
2023-12-14T20:36:01.452Z,74.97
2023-12-14T20:38:31.318Z,74.53
2023-12-14T20:41:01.180Z,74.39
2023-12-14T20:43:33.584Z,74.71
2023-12-14T20:46:03.162Z,74.32
2023-12-14T20:48:32.976Z,74.62
2023-12-14T20:51:02.624Z,74.90
2023-12-14T20:53:32.296Z,75.01
2023-12-14T20:56:02.022Z,74.86
2023-12-14T20:58:34.551Z,74.69
2023-12-14T21:01:04.479Z,74.90
2023-12-14T21:03:36.614Z,75.02
2023-12-14T21:06:06.486Z,74.62
2023-12-14T21:08:36.113Z,74.93
2023-12-14T21:11:05.789Z,74.46
2023-12-14T21:13:38.738Z,73.29
2023-12-14T21:16:09.172Z,73.10
2023-12-14T21:18:38.976Z,72.11
2023-12-14T21:21:09.878Z,72.45
2023-12-14T21:23:39.510Z,72.78
2023-12-14T21:26:11.660Z,71.96
2023-12-14T21:28:41.452Z,72.08
2023-12-14T21:31:14.250Z,71.72
2023-12-14T21:33:44.141Z,71.81
2023-12-14T21:36:14.648Z,71.37
2023-12-14T21:38:44.402Z,70.52
2023-12-14T21:41:16.178Z,70.90
2023-12-14T21:43:48.440Z,71.23
2023-12-14T21:46:19.126Z,71.01
2023-12-14T21:48:48.804Z,70.89
2023-12-14T21:51:18.848Z,69.70
2023-12-14T21:53:49.540Z,69.74
2023-12-14T21:56:19.452Z,70.17
2023-12-14T21:58:51.621Z,69.81
2023-12-14T22:01:21.377Z,70.00
2023-12-14T22:03:50.929Z,70.38
2023-12-14T22:06:20.548Z,69.80
2023-12-14T22:08:50.618Z,69.84
2023-12-14T22:11:23.098Z,70.42
2023-12-14T22:13:57.199Z,70.44
2023-12-14T22:16:26.932Z,70.37
2023-12-14T22:18:57.090Z,70.00
2023-12-14T22:21:26.833Z,69.49
2023-12-14T22:23:56.858Z,69.15
2023-12-14T22:26:26.780Z,69.28
2023-12-14T22:28:59.411Z,69.50
2023-12-14T22:31:30.556Z,69.60
2023-12-14T22:34:00.177Z,70.58
2023-12-14T22:36:29.811Z,70.99
2023-12-14T22:38:59.790Z,71.29
2023-12-14T22:41:29.433Z,71.02
2023-12-14T22:44:01.975Z,70.77
2023-12-14T22:46:31.814Z,71.58
2023-12-14T22:49:06.037Z,71.56
2023-12-14T22:51:35.680Z,71.53
2023-12-14T22:54:05.552Z,71.56
2023-12-14T22:56:38.583Z,71.65
2023-12-14T22:59:11.010Z,71.88
2023-12-14T23:01:40.753Z,71.71
2023-12-14T23:04:10.490Z,71.34
2023-12-14T23:06:43.183Z,71.18
2023-12-14T23:09:14.343Z,71.12
2023-12-14T23:11:41.499Z,71.00
2023-12-14T23:14:13.972Z,70.86
2023-12-14T23:16:47.388Z,70.26
2023-12-14T23:19:16.988Z,70.59
2023-12-14T23:21:46.601Z,70.88
2023-12-14T23:24:16.176Z,71.04
2023-12-14T23:26:45.754Z,71.07
2023-12-14T23:29:18.077Z,71.40
2023-12-14T23:31:47.733Z,70.92
2023-12-14T23:34:17.387Z,70.99
2023-12-14T23:36:47.179Z,70.70
2023-12-14T23:39:16.878Z,70.72
2023-12-14T23:41:46.578Z,70.63
2023-12-14T23:44:18.788Z,70.89
2023-12-14T23:46:48.471Z,70.58
2023-12-14T23:49:18.164Z,70.53
2023-12-14T23:51:47.961Z,70.69
2023-12-14T23:54:17.558Z,70.22
2023-12-14T23:56:47.125Z,70.08
2023-12-14T23:59:19.437Z,70.16
